createdAt,value
2018-12-25T00:00:56.420Z,103098.26
2018-12-25T00:05:49.339Z,103101.56
2018-12-25T00:11:04.128Z,103106.11
2018-12-25T00:15:57.025Z,103096.81
2018-12-25T00:20:49.862Z,103092.89
2018-12-25T00:25:43.533Z,103094.48
2018-12-25T00:30:36.411Z,103103.05
2018-12-25T00:35:29.278Z,103100.51
2018-12-25T00:40:22.221Z,103106.26
2018-12-25T00:45:18.273Z,103086.29
2018-12-25T00:50:12.073Z,103075.71
2018-12-25T00:55:04.967Z,103058.97
2018-12-25T00:59:57.897Z,103057.82
2018-12-25T01:04:50.729Z,103066.44
2018-12-25T01:09:43.630Z,103062.77
2018-12-25T01:14:36.791Z,103065.45
2018-12-25T01:19:30.606Z,103074.97
2018-12-25T01:24:23.449Z,103084.74
2018-12-25T01:29:16.297Z,103081.64
2018-12-25T01:34:09.183Z,103078.52
2018-12-25T01:39:02.347Z,103083.34
2018-12-25T01:43:55.240Z,103090.23
2018-12-25T01:48:48.141Z,103095.19
2018-12-25T01:53:40.981Z,103100.48
2018-12-25T01:58:33.841Z,103103.70
2018-12-25T02:03:26.708Z,103108.61
2018-12-25T02:08:19.573Z,103110.42
2018-12-25T02:13:12.459Z,103107.26
2018-12-25T02:18:05.335Z,103110.49
2018-12-25T02:22:58.310Z,103108.48
2018-12-25T02:27:51.171Z,103110.57
2018-12-25T02:32:44.064Z,103118.13
2018-12-25T02:37:36.906Z,103116.31
2018-12-25T02:42:29.793Z,103111.84
2018-12-25T02:47:22.651Z,103115.30
2018-12-25T02:52:16.698Z,103103.52
2018-12-25T02:57:09.526Z,103104.41
2018-12-25T03:02:03.322Z,103099.20
2018-12-25T03:06:56.202Z,103103.01
2018-12-25T03:11:50.047Z,103098.17
2018-12-25T03:16:42.899Z,103102.59
2018-12-25T03:21:35.762Z,103093.14
2018-12-25T03:26:28.619Z,103079.11
2018-12-25T03:31:21.486Z,103077.13
2018-12-25T03:36:14.367Z,103075.02
2018-12-25T03:41:08.318Z,103077.48
2018-12-25T03:46:01.198Z,103069.72
2018-12-25T03:50:54.066Z,103062.97
2018-12-25T03:55:47.026Z,103061.43
2018-12-25T04:00:39.907Z,103060.63
2018-12-25T04:05:32.798Z,103056.10
2018-12-25T04:10:25.724Z,103057.45
2018-12-25T04:15:18.626Z,103065.88
2018-12-25T04:20:19.723Z,103061.59
2018-12-25T04:25:06.247Z,103061.44
2018-12-25T04:29:59.107Z,103059.55
2018-12-25T04:34:51.985Z,103057.52
2018-12-25T04:39:44.864Z,103042.98
2018-12-25T04:44:37.758Z,103040.33
2018-12-25T04:49:30.589Z,103044.25
2018-12-25T04:54:23.486Z,103039.94
2018-12-25T04:59:16.390Z,103049.70
2018-12-25T05:04:12.203Z,103055.72
2018-12-25T05:09:06.903Z,103048.28
2018-12-25T05:13:59.756Z,103051.59
2018-12-25T05:18:52.625Z,103053.88
2018-12-25T05:23:45.481Z,103043.34
2018-12-25T05:28:38.337Z,103043.09
2018-12-25T05:33:31.224Z,103047.17
2018-12-25T05:38:24.082Z,103041.59
2018-12-25T05:43:16.924Z,103045.12
2018-12-25T05:48:09.806Z,103047.47
2018-12-25T05:53:02.694Z,103045.64
2018-12-25T05:57:55.529Z,103055.13
2018-12-25T06:02:48.398Z,103057.65
2018-12-25T06:07:41.252Z,103064.06
2018-12-25T06:12:34.158Z,103065.79
2018-12-25T06:17:27.026Z,103063.75
2018-12-25T06:22:21.117Z,103070.45
2018-12-25T06:27:13.989Z,103070.14
2018-12-25T06:32:08.685Z,103071.06
2018-12-25T06:37:02.020Z,103074.66
2018-12-25T06:41:54.896Z,103066.68
2018-12-25T06:46:47.762Z,103057.27
2018-12-25T06:51:40.627Z,103059.50
2018-12-25T06:56:33.486Z,103059.39
2018-12-25T07:01:28.449Z,103053.29
2018-12-25T07:06:21.296Z,103052.16
2018-12-25T07:11:14.146Z,103050.60
2018-12-25T07:16:07.001Z,103060.20
2018-12-25T07:20:59.886Z,103054.16
2018-12-25T07:25:52.762Z,103058.23
2018-12-25T07:30:45.633Z,103050.06
2018-12-25T07:35:38.498Z,103054.39
2018-12-25T07:40:31.333Z,103048.36
2018-12-25T07:45:24.209Z,103044.26
2018-12-25T07:50:17.074Z,103032.66
2018-12-25T07:55:09.938Z,103029.91
2018-12-25T08:00:03.169Z,103034.67
2018-12-25T08:04:56.044Z,103037.58
2018-12-25T08:09:48.910Z,103036.25
2018-12-25T08:14:41.817Z,103038.30
2018-12-25T08:19:34.703Z,103041.35
2018-12-25T08:24:27.574Z,103045.50
2018-12-25T08:29:20.434Z,103033.13
2018-12-25T08:34:15.137Z,103036.11
2018-12-25T08:39:08.063Z,103040.73
2018-12-25T08:44:00.886Z,103041.19
2018-12-25T08:48:53.750Z,103042.81
2018-12-25T08:53:46.600Z,103043.40
2018-12-25T08:58:39.462Z,103053.89
2018-12-25T09:03:32.370Z,103057.29
2018-12-25T09:08:25.230Z,103061.78
2018-12-25T09:13:18.088Z,103052.20
2018-12-25T09:18:11.034Z,103049.81
2018-12-25T09:23:03.879Z,103049.16
2018-12-25T09:27:56.786Z,103057.86
2018-12-25T09:32:49.664Z,103053.42
2018-12-25T09:37:42.556Z,103060.98
2018-12-25T09:42:35.409Z,103066.28
2018-12-25T09:47:28.254Z,103076.58
2018-12-25T09:52:22.222Z,103066.45
2018-12-25T09:57:15.082Z,103071.38
2018-12-25T10:02:07.959Z,103068.08
2018-12-25T10:07:00.851Z,103057.25
2018-12-25T10:11:53.718Z,103052.08
2018-12-25T10:16:46.566Z,103047.49
2018-12-25T10:21:39.441Z,103052.97
2018-12-25T10:26:32.307Z,103050.58
2018-12-25T10:31:25.242Z,103037.69
2018-12-25T10:36:18.114Z,103031.52
2018-12-25T10:41:12.802Z,103028.78
2018-12-25T10:46:05.772Z,103022.45
2018-12-25T10:50:58.755Z,103021.43
2018-12-25T10:55:51.605Z,103028.07
2018-12-25T11:00:53.292Z,103029.51
2018-12-25T11:05:46.250Z,103041.06
2018-12-25T11:10:39.260Z,103037.97
2018-12-25T11:15:36.193Z,103038.77
2018-12-25T11:20:39.732Z,103036.53
2018-12-25T11:25:36.149Z,103030.30
2018-12-25T11:30:33.228Z,103028.61
2018-12-25T11:35:29.622Z,103031.93
2018-12-25T11:40:25.335Z,103026.79
2018-12-25T11:45:20.887Z,103015.17
2018-12-25T11:50:13.786Z,103009.84
2018-12-25T11:55:06.656Z,103011.41
2018-12-25T11:59:59.501Z,103005.27
2018-12-25T12:04:52.384Z,102993.38
2018-12-25T12:09:45.328Z,102996.67
2018-12-25T12:14:38.205Z,103000.58
2018-12-25T12:19:31.073Z,102995.14
2018-12-25T12:24:23.940Z,102996.42
2018-12-25T12:29:16.774Z,102995.29
2018-12-25T12:34:09.677Z,103001.84
2018-12-25T12:39:04.075Z,102999.03
2018-12-25T12:43:56.992Z,103003.09
2018-12-25T12:48:49.870Z,103004.29
2018-12-25T12:53:45.576Z,103010.70
2018-12-25T12:58:38.434Z,103003.86
2018-12-25T13:03:31.352Z,103009.35
2018-12-25T13:08:24.260Z,103010.28
2018-12-25T13:13:17.152Z,103006.38
2018-12-25T13:18:10.009Z,103013.08
2018-12-25T13:23:02.891Z,103021.17
2018-12-25T13:27:55.760Z,103012.95
2018-12-25T13:32:48.667Z,103021.12
2018-12-25T13:37:41.520Z,103016.75
2018-12-25T13:42:34.391Z,103016.37
2018-12-25T13:47:27.342Z,103011.61
2018-12-25T13:52:20.222Z,103003.69
2018-12-25T13:57:13.100Z,103010.86
2018-12-25T14:02:05.964Z,103007.98
2018-12-25T14:06:58.858Z,103006.55
2018-12-25T14:11:52.802Z,103012.11
2018-12-25T14:16:45.746Z,103007.80
2018-12-25T14:21:38.657Z,103011.66
2018-12-25T14:26:31.533Z,103010.95
2018-12-25T14:31:24.412Z,103019.23
2018-12-25T14:36:17.294Z,103019.59
2018-12-25T14:41:10.261Z,103022.66
2018-12-25T14:46:03.134Z,103026.66
2018-12-25T14:50:55.995Z,103019.72
2018-12-25T14:55:49.979Z,103019.31
2018-12-25T15:00:42.856Z,103030.05
2018-12-25T15:05:35.724Z,103031.25
2018-12-25T15:10:28.943Z,103026.55
2018-12-25T15:15:21.803Z,103021.94
2018-12-25T15:20:14.696Z,103020.70
2018-12-25T15:25:07.613Z,103020.83
2018-12-25T15:30:00.631Z,103015.02
2018-12-25T15:34:55.849Z,103018.80
2018-12-25T15:39:48.702Z,103024.51
2018-12-25T15:44:41.585Z,103021.84
2018-12-25T15:49:34.473Z,103030.86
2018-12-25T15:54:27.330Z,103031.74
2018-12-25T15:59:20.194Z,103031.41
2018-12-25T16:04:13.063Z,103032.54
2018-12-25T16:09:07.453Z,103034.39
2018-12-25T16:14:00.320Z,103023.72
2018-12-25T16:18:53.177Z,103030.67
2018-12-25T16:23:46.042Z,103034.81
2018-12-25T16:28:38.898Z,103032.77
2018-12-25T16:33:31.793Z,103025.10
2018-12-25T16:38:24.666Z,103027.08
2018-12-25T16:43:18.636Z,103030.39
2018-12-25T16:48:11.480Z,103041.83
2018-12-25T16:53:04.473Z,103042.31
2018-12-25T16:57:57.475Z,103036.41
2018-12-25T17:02:50.356Z,103043.77
2018-12-25T17:07:43.201Z,103035.06
2018-12-25T17:12:36.086Z,103035.70
2018-12-25T17:17:28.953Z,103035.80
2018-12-25T17:22:22.142Z,103033.17
2018-12-25T17:27:15.004Z,103038.02
2018-12-25T17:32:07.888Z,103041.94
2018-12-25T17:37:00.751Z,103042.44
2018-12-25T17:41:53.652Z,103047.55
2018-12-25T17:46:46.506Z,103041.55
2018-12-25T17:51:39.351Z,103044.38
2018-12-25T17:56:37.705Z,103052.97
2018-12-25T18:01:26.982Z,103048.32
2018-12-25T18:06:19.863Z,103049.87
2018-12-25T18:11:12.753Z,103054.30
2018-12-25T18:16:05.611Z,103055.20
2018-12-25T18:20:58.467Z,103046.40
2018-12-25T18:25:51.367Z,103055.74
2018-12-25T18:30:44.237Z,103050.42
2018-12-25T18:35:37.105Z,103040.81
2018-12-25T18:40:29.968Z,103044.97
2018-12-25T18:45:22.829Z,103043.37
2018-12-25T18:50:15.685Z,103051.29
2018-12-25T18:55:08.547Z,103047.98
2018-12-25T19:00:01.395Z,103040.52
2018-12-25T19:04:55.246Z,103037.22
2018-12-25T19:09:48.132Z,103036.63
2018-12-25T19:14:58.732Z,103036.13
2018-12-25T19:19:51.627Z,103036.52
2018-12-25T19:24:44.477Z,103040.66
2018-12-25T19:29:37.465Z,103047.89
2018-12-25T19:34:30.366Z,103047.14
2018-12-25T19:39:23.252Z,103046.26
2018-12-25T19:44:16.099Z,103042.02
2018-12-25T19:49:08.986Z,103043.74
2018-12-25T19:54:01.831Z,103030.70
2018-12-25T19:58:54.708Z,103025.72
2018-12-25T20:03:53.706Z,103026.75
2018-12-25T20:09:59.604Z,103024.66
2018-12-25T20:15:45.099Z,103014.38
2018-12-25T20:21:19.272Z,103018.03
2018-12-25T20:27:09.106Z,103021.22
2018-12-25T20:33:13.907Z,103023.58
2018-12-25T20:39:28.843Z,103020.30
2018-12-25T20:45:40.715Z,103020.95
2018-12-25T20:51:41.437Z,103018.81
2018-12-25T20:57:37.461Z,103026.91
2018-12-25T21:03:52.366Z,103023.92
2018-12-25T21:09:41.561Z,103021.21
2018-12-25T21:15:52.444Z,103016.44
2018-12-25T21:21:47.670Z,103017.44
2018-12-25T21:27:29.726Z,103012.23
2018-12-25T21:32:22.738Z,103008.70
2018-12-25T21:37:15.973Z,103014.30
2018-12-25T21:42:09.246Z,103011.73
2018-12-25T21:47:02.833Z,103011.33
2018-12-25T21:51:55.721Z,103008.81
2018-12-25T21:56:48.720Z,103000.47
2018-12-25T22:01:41.562Z,103006.42
2018-12-25T22:06:34.427Z,103005.05
2018-12-25T22:11:27.279Z,103005.80
2018-12-25T22:16:20.217Z,102999.89
2018-12-25T22:21:13.219Z,103000.09
2018-12-25T22:26:07.979Z,103004.86
2018-12-25T22:31:00.859Z,102996.27
2018-12-25T22:35:53.751Z,102990.70
2018-12-25T22:40:46.620Z,102982.97
2018-12-25T22:45:39.507Z,102982.05
2018-12-25T22:50:32.431Z,102976.25
2018-12-25T22:55:25.508Z,102979.38
2018-12-25T23:00:19.653Z,102972.78
2018-12-25T23:05:12.531Z,102969.41
2018-12-25T23:10:07.697Z,102961.41
2018-12-25T23:15:00.573Z,102958.87
2018-12-25T23:19:53.459Z,102962.59
2018-12-25T23:24:46.321Z,102968.29
2018-12-25T23:29:39.231Z,102981.32
2018-12-25T23:34:32.102Z,102968.89
2018-12-25T23:39:25.011Z,102960.14
2018-12-25T23:44:17.867Z,102970.55
2018-12-25T23:49:10.747Z,102963.03
2018-12-25T23:54:03.597Z,102965.87
2018-12-25T23:58:56.612Z,102966.33
